Time;durP1;ratioP1;P1;durP2;ratioP2;P2;SDS_P1;SDS_P2;PMS_P1;PMS_P2;Temp;Humidity;BMP_temperature;BMP_pressure;BME280_temperature;BME280_humidity;BME280_pressure;Samples;Min_cycle;Max_cycle;Signal;HPM_P1;HPM_P2
2022/02/24 00:00:08;;;;;;;5.05;4.65;;;7.20;99.90;;;;;;5084070;28;20222;-74
2022/02/24 00:02:35;;;;;;;4.85;4.45;;;7.10;99.90;;;;;;5084543;28;20198;-72
2022/02/24 00:05:02;;;;;;;4.78;4.18;;;7.10;99.90;;;;;;5084887;28;20653;-70
2022/02/24 00:07:29;;;;;;;4.75;4.32;;;7.10;99.90;;;;;;5091131;28;20197;-71
2022/02/24 00:09:56;;;;;;;4.40;4.00;;;7.10;99.90;;;;;;5081276;28;20235;-70
2022/02/24 00:12:25;;;;;;;11.63;4.18;;;7.10;99.90;;;;;;5079511;28;20219;-72
2022/02/24 00:14:53;;;;;;;4.22;3.92;;;7.10;99.90;;;;;;5078424;28;20271;-72
2022/02/24 00:17:20;;;;;;;4.55;4.15;;;7.10;99.90;;;;;;5080613;28;20201;-71
2022/02/24 00:19:47;;;;;;;3.95;3.65;;;7.10;99.90;;;;;;5080087;28;20220;-74
2022/02/24 00:22:14;;;;;;;4.60;4.20;;;7.10;99.90;;;;;;5083326;28;20212;-73
2022/02/24 00:24:41;;;;;;;4.70;4.30;;;7.10;99.90;;;;;;5086166;28;20217;-74
2022/02/24 00:27:08;;;;;;;4.57;4.28;;;7.10;99.90;;;;;;5083421;28;20728;-73
2022/02/24 00:29:37;;;;;;;4.30;3.90;;;7.00;99.90;;;;;;5086611;28;20218;-73
2022/02/24 00:32:05;;;;;;;4.35;3.95;;;7.00;99.90;;;;;;5084626;28;20194;-71
2022/02/24 00:34:32;;;;;;;4.22;3.92;;;7.00;99.90;;;;;;5082737;28;20217;-72
2022/02/24 00:37:01;;;;;;;4.32;4.03;;;7.00;99.90;;;;;;5085197;28;20247;-71
2022/02/24 00:39:28;;;;;;;4.63;4.22;;;6.90;99.90;;;;;;5082356;28;20252;-72
2022/02/24 00:41:56;;;;;;;4.22;3.92;;;6.90;99.90;;;;;;5083529;28;20196;-70
2022/02/24 00:44:23;;;;;;;4.70;4.30;;;6.90;99.90;;;;;;5084204;28;20229;-72
2022/02/24 00:46:51;;;;;;;4.20;3.90;;;6.90;99.90;;;;;;5083445;28;20223;-71
2022/02/24 00:49:20;;;;;;;5.00;4.10;;;6.80;99.90;;;;;;5080940;28;20221;-72
2022/02/24 00:51:47;;;;;;;4.28;3.97;;;6.80;99.90;;;;;;5083613;28;20221;-72
2022/02/24 00:54:15;;;;;;;4.68;4.28;;;6.80;99.90;;;;;;5086364;28;20274;-70
2022/02/24 00:56:42;;;;;;;3.83;3.53;;;6.80;99.90;;;;;;5083151;28;20189;-71
2022/02/24 00:59:10;;;;;;;3.42;3.13;;;6.80;99.90;;;;;;5080837;28;20225;-71
2022/02/24 01:01:37;;;;;;;3.67;3.38;;;6.70;99.90;;;;;;5085834;28;20251;-73
2022/02/24 01:04:05;;;;;;;4.32;3.97;;;6.80;99.90;;;;;;5084499;28;20779;-72
2022/02/24 01:06:32;;;;;;;4.30;3.90;;;6.70;99.90;;;;;;5084618;28;20254;-72
2022/02/24 01:08:59;;;;;;;4.22;3.92;;;6.70;99.90;;;;;;5080891;28;20358;-71
2022/02/24 01:11:26;;;;;;;5.38;4.88;;;6.60;99.90;;;;;;5081350;28;20331;-74
2022/02/24 01:13:53;;;;;;;4.45;4.15;;;6.60;99.90;;;;;;5083513;28;20218;-73
2022/02/24 01:16:21;;;;;;;4.68;4.20;;;6.50;99.90;;;;;;5085503;28;20885;-72
2022/02/24 01:18:48;;;;;;;4.28;3.88;;;6.50;99.90;;;;;;5083811;28;20193;-73
2022/02/24 01:21:16;;;;;;;4.70;4.07;;;6.40;99.90;;;;;;5083109;28;20675;-71
2022/02/24 01:23:44;;;;;;;4.70;4.30;;;6.40;99.90;;;;;;5084505;28;20224;-72
2022/02/24 01:26:11;;;;;;;4.45;4.07;;;6.40;99.90;;;;;;5084279;28;20316;-74
2022/02/24 01:28:40;;;;;;;4.10;3.80;;;6.40;99.90;;;;;;5084370;28;20198;-72
2022/02/24 01:31:07;;;;;;;4.47;4.00;;;6.30;99.90;;;;;;5081614;28;20226;-71
2022/02/24 01:33:34;;;;;;;4.38;4.03;;;6.30;99.90;;;;;;5082934;28;20229;-71
2022/02/24 01:36:01;;;;;;;4.70;4.30;;;6.30;99.90;;;;;;5083886;28;20209;-72
2022/02/24 01:38:29;;;;;;;4.50;4.10;;;6.30;99.90;;;;;;5084887;28;20224;-72
2022/02/24 01:40:56;;;;;;;3.38;3.10;;;6.30;99.90;;;;;;5080214;28;20255;-71
2022/02/24 01:43:23;;;;;;;3.92;3.63;;;6.30;99.90;;;;;;5079993;28;20237;-71
2022/02/24 01:45:50;;;;;;;4.43;4.13;;;6.30;99.90;;;;;;5082018;28;20275;-71
2022/02/24 01:48:17;;;;;;;4.35;4.03;;;6.20;99.90;;;;;;5082218;28;20201;-70
2022/02/24 01:50:44;;;;;;;4.18;3.88;;;6.20;99.90;;;;;;5082622;28;20233;-70
2022/02/24 01:53:12;;;;;;;3.88;3.55;;;6.20;99.90;;;;;;5082524;28;20638;-70
2022/02/24 01:55:40;;;;;;;4.18;3.78;;;6.10;99.90;;;;;;5082810;28;20221;-73
2022/02/24 01:58:09;;;;;;;3.50;3.22;;;6.10;99.90;;;;;;5083635;28;20220;-70
2022/02/24 02:00:38;;;;;;;3.80;3.50;;;6.10;99.90;;;;;;5078542;28;20217;-71
2022/02/24 02:03:05;;;;;;;3.53;3.22;;;6.00;99.90;;;;;;5083133;28;20210;-71
2022/02/24 02:05:32;;;;;;;3.90;3.60;;;6.00;99.90;;;;;;5081324;28;20221;-71
2022/02/24 02:07:59;;;;;;;3.95;3.65;;;6.00;99.90;;;;;;5080544;28;20209;-71
2022/02/24 02:10:26;;;;;;;3.83;3.53;;;5.90;99.90;;;;;;5079457;28;20221;-73
2022/02/24 02:12:55;;;;;;;3.40;3.20;;;5.90;99.90;;;;;;5082218;28;20213;-71
2022/02/24 02:15:22;;;;;;;4.03;3.72;;;5.90;99.90;;;;;;5081332;28;20595;-71
2022/02/24 02:17:50;;;;;;;4.15;3.85;;;5.90;99.90;;;;;;5081922;28;20194;-71
2022/02/24 02:20:17;;;;;;;3.95;3.63;;;5.90;99.90;;;;;;5079752;28;20245;-71
2022/02/24 02:22:45;;;;;;;3.65;3.35;;;5.80;99.90;;;;;;5081025;28;20200;-73
2022/02/24 02:25:14;;;;;;;4.25;3.90;;;5.80;99.90;;;;;;5082106;28;20221;-70
2022/02/24 02:27:41;;;;;;;4.40;4.10;;;5.80;99.90;;;;;;5082098;28;20683;-71
2022/02/24 02:30:09;;;;;;;4.10;3.70;;;5.70;99.90;;;;;;5080906;28;20232;-71
2022/02/24 02:32:36;;;;;;;4.13;3.83;;;5.60;99.90;;;;;;5080883;28;20658;-70
2022/02/24 02:35:04;;;;;;;3.95;3.65;;;5.60;99.90;;;;;;5081991;28;20221;-71
2022/02/24 02:37:31;;;;;;;4.15;3.85;;;5.60;99.90;;;;;;5084579;28;20192;-71
2022/02/24 02:39:59;;;;;;;3.47;3.22;;;5.60;99.90;;;;;;5078497;28;20634;-71
2022/02/24 02:42:26;;;;;;;4.05;3.75;;;5.60;99.90;;;;;;5081266;28;20745;-72
2022/02/24 02:44:53;;;;;;;3.38;3.08;;;5.60;99.90;;;;;;5082241;28;20283;-71
2022/02/24 02:47:20;;;;;;;4.10;3.80;;;5.60;99.90;;;;;;5083469;28;20654;-71
2022/02/24 02:49:47;;;;;;;3.53;3.22;;;5.60;99.90;;;;;;5079312;28;20718;-71
2022/02/24 02:52:14;;;;;;;3.55;3.25;;;5.60;99.90;;;;;;5081353;28;20197;-70
2022/02/24 02:54:42;;;;;;;4.30;3.88;;;5.50;99.90;;;;;;5082873;28;20222;-71
2022/02/24 02:57:10;;;;;;;4.35;3.97;;;5.50;99.90;;;;;;5079508;28;20201;-71
2022/02/24 02:59:37;;;;;;;3.53;3.22;;;5.50;99.90;;;;;;5079415;28;20704;-70
2022/02/24 03:02:04;;;;;;;3.95;3.65;;;5.50;99.90;;;;;;5080433;28;20205;-71
2022/02/24 03:04:31;;;;;;;4.00;3.67;;;5.40;99.90;;;;;;5080942;28;20229;-71
2022/02/24 03:06:58;;;;;;;3.80;3.50;;;5.40;99.90;;;;;;5082075;28;20297;-70
2022/02/24 03:09:25;;;;;;;4.10;3.80;;;5.30;99.90;;;;;;5080348;28;20270;-70
2022/02/24 03:11:52;;;;;;;4.07;3.83;;;5.30;99.90;;;;;;5082974;28;20202;-70
2022/02/24 03:14:21;;;;;;;3.65;3.35;;;5.30;99.90;;;;;;5081013;28;20233;-72
2022/02/24 03:16:48;;;;;;;4.40;4.00;;;5.30;99.90;;;;;;5081851;28;20244;-70
2022/02/24 03:19:15;;;;;;;4.20;3.58;;;5.30;99.90;;;;;;5079881;28;20201;-71
2022/02/24 03:21:42;;;;;;;3.95;3.65;;;5.30;99.90;;;;;;5083175;28;20193;-70
2022/02/24 03:24:09;;;;;;;3.67;3.38;;;5.20;99.90;;;;;;5082031;28;20707;-70
2022/02/24 03:26:36;;;;;;;4.20;3.90;;;5.20;99.90;;;;;;5081417;28;20223;-71
2022/02/24 03:29:03;;;;;;;4.00;3.70;;;5.20;99.90;;;;;;5082912;28;20687;-70
2022/02/24 03:31:32;;;;;;;3.60;3.40;;;5.20;99.90;;;;;;5084348;28;20252;-70
2022/02/24 03:33:59;;;;;;;4.05;3.75;;;5.10;99.90;;;;;;5085732;28;20239;-70
2022/02/24 03:36:26;;;;;;;3.83;3.63;;;5.00;99.90;;;;;;5083711;28;20209;-71
2022/02/24 03:38:53;;;;;;;2.92;2.72;;;5.00;99.90;;;;;;5087817;28;20198;-70
2022/02/24 03:41:20;;;;;;;3.47;3.17;;;4.90;99.90;;;;;;5085560;28;20659;-70
2022/02/24 03:43:47;;;;;;;3.65;3.45;;;4.90;99.90;;;;;;5086244;28;20225;-70
2022/02/24 03:46:14;;;;;;;3.35;3.15;;;4.90;99.90;;;;;;5085242;28;20650;-70
2022/02/24 03:48:42;;;;;;;4.20;3.85;;;4.90;99.90;;;;;;5082285;28;20198;-70
2022/02/24 03:51:09;;;;;;;3.63;3.35;;;4.90;99.90;;;;;;5084887;28;20220;-70
2022/02/24 03:53:36;;;;;;;3.70;3.50;;;4.90;99.90;;;;;;5084208;28;20241;-70
2022/02/24 03:56:04;;;;;;;3.58;3.38;;;4.80;99.90;;;;;;5084190;28;20262;-70
2022/02/24 03:58:31;;;;;;;3.95;3.50;;;4.90;99.90;;;;;;5084234;28;20197;-71
2022/02/24 04:00:59;;;;;;;3.90;3.50;;;4.90;99.90;;;;;;5085405;28;20217;-70
2022/02/24 04:03:26;;;;;;;3.45;3.25;;;4.90;99.90;;;;;;5085620;28;20232;-70
2022/02/24 04:05:55;;;;;;;3.90;3.70;;;4.90;99.90;;;;;;5083122;28;20265;-70
2022/02/24 04:08:22;;;;;;;3.83;3.53;;;4.90;99.90;;;;;;5084715;28;20205;-70
2022/02/24 04:10:49;;;;;;;3.30;3.10;;;4.90;99.90;;;;;;5083158;28;20214;-70
2022/02/24 04:13:16;;;;;;;4.00;3.70;;;4.80;99.90;;;;;;5086066;28;20214;-70
2022/02/24 04:15:43;;;;;;;3.90;3.60;;;4.80;99.90;;;;;;5081424;28;20225;-70
2022/02/24 04:18:10;;;;;;;3.28;3.08;;;4.80;99.90;;;;;;5081995;28;20251;-70
2022/02/24 04:20:37;;;;;;;3.58;3.38;;;4.80;99.90;;;;;;5082599;28;20773;-71
2022/02/24 04:23:05;;;;;;;3.22;3.03;;;4.80;99.90;;;;;;5083398;28;20709;-70
2022/02/24 04:25:33;;;;;;;3.75;3.20;;;4.80;99.90;;;;;;5083004;28;20217;-70
2022/02/24 04:28:00;;;;;;;3.60;3.38;;;4.80;99.90;;;;;;5084071;28;20213;-70
2022/02/24 04:30:27;;;;;;;3.22;3.03;;;4.70;99.90;;;;;;5082261;28;20270;-70
2022/02/24 04:32:54;;;;;;;3.20;3.00;;;4.70;99.90;;;;;;5084439;28;20592;-70
2022/02/24 04:35:21;;;;;;;3.00;2.80;;;4.70;99.90;;;;;;5085807;28;20225;-70
2022/02/24 04:37:48;;;;;;;3.50;3.20;;;4.70;99.90;;;;;;5083734;28;20246;-70
2022/02/24 04:40:16;;;;;;;3.20;3.00;;;4.70;99.90;;;;;;5083489;28;20230;-70
2022/02/24 04:42:44;;;;;;;3.45;3.25;;;4.70;99.90;;;;;;5089231;28;20513;-71
2022/02/24 04:45:12;;;;;;;3.03;2.83;;;4.60;99.90;;;;;;5144335;22;20226;-76
2022/02/24 04:47:39;;;;;;;3.25;3.05;;;4.60;99.90;;;;;;5069756;28;20210;-75
2022/02/24 04:50:08;;;;;;;3.40;3.20;;;4.50;99.90;;;;;;5065957;28;20236;-75
2022/02/24 04:52:36;;;;;;;3.33;3.13;;;4.50;99.90;;;;;;5066075;28;20197;-77
2022/02/24 04:55:04;;;;;;;3.00;2.80;;;4.50;99.90;;;;;;5063103;28;20232;-79
2022/02/24 04:57:32;;;;;;;3.13;2.92;;;4.50;99.90;;;;;;5066168;28;20191;-74
2022/02/24 05:00:00;;;;;;;3.25;3.05;;;4.50;99.90;;;;;;5065762;28;20222;-79
2022/02/24 05:02:27;;;;;;;3.92;3.70;;;4.40;99.90;;;;;;5066538;28;20199;-74
2022/02/24 05:04:54;;;;;;;3.47;3.28;;;4.40;99.90;;;;;;5072836;28;20217;-75
2022/02/24 05:07:21;;;;;;;3.63;3.40;;;4.40;99.90;;;;;;5072355;28;20256;-75
2022/02/24 05:09:48;;;;;;;3.47;3.17;;;4.40;99.90;;;;;;5064296;28;20653;-74
2022/02/24 05:12:15;;;;;;;4.03;3.67;;;4.40;99.90;;;;;;5070385;28;20210;-74
2022/02/24 05:14:43;;;;;;;2.83;2.63;;;4.40;99.90;;;;;;5066889;28;20222;-77
2022/02/24 05:17:10;;;;;;;3.22;3.03;;;4.40;99.90;;;;;;5067455;28;20203;-74
2022/02/24 05:19:37;;;;;;;3.42;3.22;;;4.30;99.90;;;;;;5064035;28;20202;-74
2022/02/24 05:22:04;;;;;;;3.13;2.92;;;4.30;99.90;;;;;;5066600;28;20676;-74
2022/02/24 05:24:32;;;;;;;3.15;2.95;;;4.20;99.90;;;;;;5072163;28;20214;-76
2022/02/24 05:26:58;;;;;;;3.55;3.35;;;4.20;99.90;;;;;;5064841;28;20752;-78
2022/02/24 05:29:26;;;;;;;3.80;3.50;;;4.20;99.90;;;;;;5065915;28;20203;-76
2022/02/24 05:31:54;;;;;;;3.50;3.30;;;4.20;99.90;;;;;;5066701;28;20224;-78
2022/02/24 05:34:21;;;;;;;4.25;3.85;;;4.20;99.90;;;;;;5066345;28;20222;-75
2022/02/24 05:36:48;;;;;;;4.43;4.03;;;4.20;99.90;;;;;;5067418;28;20210;-76
2022/02/24 05:39:15;;;;;;;5.20;4.70;;;4.20;99.90;;;;;;5062698;28;20218;-75
2022/02/24 05:41:42;;;;;;;7.95;6.85;;;4.20;99.90;;;;;;5061534;28;20278;-75
2022/02/24 05:44:09;;;;;;;8.27;7.60;;;4.20;99.90;;;;;;5065292;28;20225;-76
2022/02/24 05:46:36;;;;;;;9.10;8.40;;;4.20;99.90;;;;;;5068910;28;20734;-76
2022/02/24 05:49:05;;;;;;;7.63;6.97;;;4.10;99.90;;;;;;5067163;28;20201;-79
2022/02/24 05:51:32;;;;;;;6.80;6.30;;;4.20;99.90;;;;;;5067608;28;20224;-77
2022/02/24 05:53:59;;;;;;;6.20;5.80;;;4.20;99.90;;;;;;5064364;28;20218;-74
2022/02/24 05:56:27;;;;;;;5.50;5.10;;;4.20;99.90;;;;;;5064176;28;20600;-74
2022/02/24 05:58:56;;;;;;;5.13;4.72;;;4.20;99.90;;;;;;5062056;28;20199;-76
2022/02/24 06:01:23;;;;;;;4.40;4.00;;;4.20;99.90;;;;;;5062022;28;20738;-78
2022/02/24 06:03:50;;;;;;;4.20;3.90;;;4.20;99.90;;;;;;5071936;28;20227;-76
2022/02/24 06:06:18;;;;;;;3.97;3.70;;;4.20;99.90;;;;;;5063140;28;20222;-76
2022/02/24 06:08:46;;;;;;;4.30;3.90;;;4.20;99.90;;;;;;5072193;28;20791;-74
2022/02/24 06:11:13;;;;;;;4.63;4.32;;;4.20;99.90;;;;;;5074432;28;20217;-78
2022/02/24 06:13:40;;;;;;;4.40;4.10;;;4.20;99.90;;;;;;5065466;28;20232;-75
2022/02/24 06:16:08;;;;;;;4.82;4.45;;;4.20;99.90;;;;;;5074286;28;20223;-74
2022/02/24 06:18:35;;;;;;;7.47;6.70;;;4.20;99.90;;;;;;5061090;28;20198;-78
2022/02/24 06:21:02;;;;;;;8.00;7.22;;;4.20;99.90;;;;;;5069342;28;20268;-74
2022/02/24 06:23:30;;;;;;;9.20;6.88;;;4.20;99.90;;;;;;5072729;28;20656;-74
2022/02/24 06:25:57;;;;;;;7.43;6.47;;;4.10;99.90;;;;;;5063531;28;20218;-76
2022/02/24 06:28:24;;;;;;;6.25;5.65;;;4.10;99.90;;;;;;5068833;28;21086;-75
2022/02/24 06:30:51;;;;;;;5.60;5.10;;;4.10;99.90;;;;;;5065244;28;20223;-78
2022/02/24 06:33:18;;;;;;;5.20;4.70;;;4.10;99.90;;;;;;5072919;28;20668;-74
2022/02/24 06:35:45;;;;;;;5.20;4.70;;;4.10;99.90;;;;;;5066839;28;20210;-78
2022/02/24 06:38:12;;;;;;;4.82;4.43;;;4.10;99.90;;;;;;5067725;28;20193;-73
2022/02/24 06:40:41;;;;;;;5.25;4.75;;;4.20;99.90;;;;;;5069311;28;20733;-74
2022/02/24 06:43:08;;;;;;;5.72;5.22;;;4.30;99.90;;;;;;5065262;28;20202;-76
2022/02/24 06:45:35;;;;;;;6.25;5.60;;;4.30;99.90;;;;;;5068470;28;20218;-74
2022/02/24 06:48:02;;;;;;;5.72;5.22;;;4.40;99.90;;;;;;5068964;28;20958;-76
2022/02/24 06:50:29;;;;;;;7.03;4.70;;;4.50;99.90;;;;;;5070100;28;20769;-74
2022/02/24 06:52:56;;;;;;;5.63;4.57;;;4.50;99.90;;;;;;5066235;28;20198;-75
2022/02/24 06:55:24;;;;;;;5.35;4.85;;;4.60;99.90;;;;;;5076057;28;20222;-74
2022/02/24 06:57:53;;;;;;;5.30;4.80;;;4.60;99.90;;;;;;5071169;28;20202;-75
2022/02/24 07:00:21;;;;;;;4.13;3.83;;;4.70;99.90;;;;;;5068611;28;22794;-77
2022/02/24 07:02:48;;;;;;;4.85;4.07;;;4.70;99.90;;;;;;5070310;28;20682;-75
2022/02/24 07:05:16;;;;;;;4.47;4.18;;;4.80;99.90;;;;;;5069358;28;20214;-73
2022/02/24 07:07:43;;;;;;;4.40;4.00;;;4.90;99.90;;;;;;5074721;28;20217;-73
2022/02/24 07:10:13;;;;;;;4.88;4.47;;;4.90;99.90;;;;;;5073786;28;20204;-77
2022/02/24 07:12:40;;;;;;;4.40;4.03;;;5.00;99.90;;;;;;5075099;28;20267;-77
2022/02/24 07:15:09;;;;;;;4.95;4.32;;;5.00;99.90;;;;;;5073141;28;20299;-75
2022/02/24 07:17:41;;;;;;;5.90;5.30;;;5.10;99.90;;;;;;5068314;28;20204;-74
2022/02/24 07:20:09;;;;;;;4.53;4.10;;;5.20;99.90;;;;;;5068972;28;20262;-77
2022/02/24 07:22:36;;;;;;;5.22;4.72;;;5.40;99.90;;;;;;5075293;28;20203;-79
2022/02/24 07:25:05;;;;;;;6.47;4.47;;;6.00;99.90;;;;;;5079085;28;20637;-77
2022/02/24 07:27:33;;;;;;;6.00;5.03;;;6.50;99.90;;;;;;5071853;28;20762;-75
2022/02/24 07:30:00;;;;;;;6.65;4.55;;;6.80;99.90;;;;;;5066762;28;20194;-77
2022/02/24 07:32:28;;;;;;;4.65;3.92;;;7.10;99.90;;;;;;5076347;28;20564;-75
2022/02/24 07:34:55;;;;;;;3.78;3.45;;;7.50;99.90;;;;;;5065716;28;20275;-75
2022/02/24 07:37:22;;;;;;;3.70;3.40;;;8.10;99.90;;;;;;5070563;28;20268;-76
2022/02/24 07:39:50;;;;;;;3.80;3.50;;;8.60;99.90;;;;;;5066697;28;20202;-74
2022/02/24 07:42:18;;;;;;;2.97;2.78;;;8.90;99.90;;;;;;5066899;28;20225;-75
2022/02/24 07:44:45;;;;;;;3.22;3.03;;;8.60;99.90;;;;;;5078244;28;20316;-75
2022/02/24 07:47:12;;;;;;;4.88;4.20;;;8.60;99.90;;;;;;5075476;28;20237;-74
2022/02/24 07:49:43;;;;;;;4.35;3.95;;;8.60;99.90;;;;;;5071845;28;20209;-75
2022/02/24 07:52:12;;;;;;;4.18;3.78;;;8.70;99.90;;;;;;5068230;28;20214;-75
2022/02/24 07:54:39;;;;;;;4.22;3.92;;;8.80;99.90;;;;;;5068642;28;20631;-74
2022/02/24 07:57:06;;;;;;;4.30;3.95;;;9.20;99.90;;;;;;5063412;28;20222;-74
2022/02/24 07:59:33;;;;;;;3.65;3.00;;;9.30;99.90;;;;;;5065178;28;20202;-75
2022/02/24 08:02:01;;;;;;;3.60;3.30;;;9.70;99.90;;;;;;5061816;28;20300;-78
2022/02/24 08:04:28;;;;;;;4.20;3.85;;;10.00;99.90;;;;;;5058916;28;20279;-81
2022/02/24 08:06:57;;;;;;;4.20;3.53;;;10.30;99.90;;;;;;5062173;28;20217;-75
2022/02/24 08:09:24;;;;;;;4.78;3.65;;;10.50;99.90;;;;;;5061745;28;20222;-81
2022/02/24 08:14:32;;;;;;;3.15;2.85;;;11.00;99.10;;;;;;5062744;28;20210;-72
2022/02/24 08:16:59;;;;;;;3.42;2.70;;;11.20;99.00;;;;;;5064709;28;20249;-77
2022/02/24 08:19:26;;;;;;;3.08;2.88;;;11.30;98.20;;;;;;5063460;28;20685;-76
2022/02/24 08:21:53;;;;;;;3.42;3.15;;;11.50;98.10;;;;;;5070320;28;20213;-79
2022/02/24 08:24:22;;;;;;;2.85;2.60;;;11.70;97.90;;;;;;5065487;28;20233;-77
2022/02/24 08:26:49;;;;;;;3.10;2.90;;;11.80;97.70;;;;;;5065207;28;20226;-79
2022/02/24 08:29:17;;;;;;;3.22;2.90;;;11.90;97.80;;;;;;5063043;28;20318;-76
2022/02/24 08:31:44;;;;;;;3.60;3.15;;;11.70;97.60;;;;;;5062659;28;20303;-75
2022/02/24 08:34:11;;;;;;;3.22;3.03;;;11.80;97.60;;;;;;5068824;28;20222;-76
2022/02/24 08:36:38;;;;;;;3.25;2.95;;;11.70;97.80;;;;;;5061116;28;20225;-76
2022/02/24 08:39:06;;;;;;;3.22;2.95;;;11.60;97.70;;;;;;5065259;28;20209;-77
2022/02/24 08:41:35;;;;;;;3.60;2.95;;;11.40;97.80;;;;;;5060599;28;20230;-77
2022/02/24 08:44:02;;;;;;;3.15;2.88;;;11.30;98.10;;;;;;5062786;28;20277;-75
2022/02/24 08:46:29;;;;;;;3.03;2.72;;;11.10;98.40;;;;;;5067440;28;20229;-75
2022/02/24 08:48:56;;;;;;;3.75;3.38;;;11.20;98.60;;;;;;5061351;28;20210;-74
2022/02/24 08:51:23;;;;;;;2.85;2.65;;;11.60;98.70;;;;;;5059213;28;20226;-77
2022/02/24 08:53:50;;;;;;;3.80;3.50;;;12.10;98.20;;;;;;5056964;28;20229;-78
2022/02/24 08:56:17;;;;;;;3.97;2.90;;;12.30;98.00;;;;;;5059076;28;20258;-77
2022/02/24 08:58:45;;;;;;;3.40;2.83;;;12.10;97.80;;;;;;5053749;28;20191;-75
2022/02/24 09:01:12;;;;;;;3.47;3.20;;;12.20;98.10;;;;;;5050443;28;20229;-74
2022/02/24 09:03:39;;;;;;;3.10;2.80;;;12.50;98.30;;;;;;5052969;28;20222;-77
2022/02/24 09:06:06;;;;;;;3.65;3.17;;;12.60;97.20;;;;;;5056107;28;20233;-74
2022/02/24 09:08:33;;;;;;;3.00;2.67;;;12.90;96.40;;;;;;5056464;28;20222;-76
2022/02/24 09:11:01;;;;;;;4.63;2.70;;;13.30;96.20;;;;;;5057826;28;20224;-74
2022/02/24 09:13:28;;;;;;;3.38;2.97;;;13.80;95.50;;;;;;5058277;28;20685;-74
2022/02/24 09:15:56;;;;;;;3.08;2.78;;;14.20;95.20;;;;;;5062869;28;20491;-76
2022/02/24 09:18:23;;;;;;;3.55;3.13;;;14.40;94.80;;;;;;5063709;28;20631;-75
2022/02/24 09:20:50;;;;;;;3.00;2.45;;;14.20;93.90;;;;;;5067383;28;20765;-76
2022/02/24 09:23:18;;;;;;;3.13;2.80;;;14.30;94.10;;;;;;5066247;28;20543;-77
2022/02/24 09:25:46;;;;;;;3.53;3.20;;;14.30;93.30;;;;;;5063995;28;20194;-79
2022/02/24 09:28:14;;;;;;;3.13;2.83;;;14.20;93.50;;;;;;5065572;28;20214;-75
2022/02/24 09:30:41;;;;;;;2.38;2.17;;;14.00;93.10;;;;;;5065983;28;20201;-76
2022/02/24 09:33:10;;;;;;;3.30;2.60;;;14.00;93.10;;;;;;5080053;28;20196;-75
2022/02/24 09:35:37;;;;;;;2.70;2.50;;;14.00;92.90;;;;;;5063648;28;20646;-77
2022/02/24 09:38:04;;;;;;;3.05;2.55;;;14.10;93.20;;;;;;5066081;28;20511;-75
2022/02/24 09:40:33;;;;;;;7.30;3.05;;;14.30;93.30;;;;;;5058752;28;20199;-76
2022/02/24 09:43:00;;;;;;;3.05;2.60;;;14.50;93.10;;;;;;5055389;28;20270;-80
2022/02/24 09:45:27;;;;;;;2.63;2.40;;;14.90;93.00;;;;;;5058897;28;20230;-77
2022/02/24 09:47:56;;;;;;;2.72;2.53;;;14.90;92.10;;;;;;5057059;28;20229;-75
2022/02/24 09:50:26;;;;;;;3.03;2.70;;;15.00;92.50;;;;;;5061954;28;20206;-79
2022/02/24 09:52:54;;;;;;;4.57;2.65;;;15.00;91.80;;;;;;5063982;28;20217;-76
2022/02/24 09:55:21;;;;;;;3.38;2.75;;;14.80;91.90;;;;;;5059625;28;20226;-75
2022/02/24 09:57:48;;;;;;;2.83;2.42;;;14.70;92.00;;;;;;5053650;28;20226;-76
2022/02/24 10:00:15;;;;;;;3.13;2.83;;;14.70;92.30;;;;;;5060877;28;20206;-82
2022/02/24 10:02:43;;;;;;;2.47;2.28;;;14.70;92.50;;;;;;5062941;28;20222;-78
2022/02/24 10:05:12;;;;;;;3.88;2.63;;;14.60;92.50;;;;;;5063504;28;20225;-77
2022/02/24 10:07:41;;;;;;;4.55;2.97;;;14.40;92.50;;;;;;5061906;28;20280;-86
2022/02/24 10:10:31;;;;;;;2.70;2.50;;;14.40;93.10;;;;;;5060798;28;20683;-81
2022/02/24 10:13:08;;;;;;;2.70;2.50;;;14.30;93.10;;;;;;5062132;28;20689;-81
2022/02/24 10:15:37;;;;;;;3.58;2.88;;;13.90;93.40;;;;;;5069868;28;21685;-75
2022/02/24 10:18:10;;;;;;;2.78;2.50;;;14.00;93.70;;;;;;5065104;28;20197;-86
2022/02/24 10:20:47;;;;;;;2.97;2.75;;;14.00;93.00;;;;;;5065086;28;20588;-80
2022/02/24 10:23:17;;;;;;;6.63;2.65;;;14.10;92.90;;;;;;5069160;28;20190;-80
2022/02/24 10:25:46;;;;;;;2.55;2.28;;;14.20;93.00;;;;;;5070385;28;20494;-78
2022/02/24 10:28:35;;;;;;;3.92;3.53;;;14.10;92.90;;;;;;5063460;28;20207;-87
2022/02/24 10:31:07;;;;;;;2.83;2.63;;;14.00;92.60;;;;;;5065736;28;20768;-75
2022/02/24 10:33:35;;;;;;;3.08;2.50;;;13.70;93.20;;;;;;5070458;28;20220;-78
2022/02/24 10:36:28;;;;;;;3.42;2.88;;;13.50;93.30;;;;;;5067424;28;20237;-74
2022/02/24 10:39:05;;;;;;;3.20;2.90;;;13.40;92.70;;;;;;5049912;28;20220;-81
2022/02/24 10:41:34;;;;;;;2.90;2.60;;;13.40;93.20;;;;;;5069773;28;20228;-82
2022/02/24 10:44:16;;;;;;;3.50;2.88;;;13.50;93.40;;;;;;5062315;28;20558;-82
2022/02/24 10:46:44;;;;;;;3.00;2.80;;;13.60;93.50;;;;;;5093264;22;20213;-69
2022/02/24 10:49:13;;;;;;;2.83;2.55;;;13.60;93.20;;;;;;5081510;28;20713;-69
2022/02/24 10:51:41;;;;;;;3.15;2.65;;;13.70;93.20;;;;;;5080655;28;20237;-70
2022/02/24 10:54:11;;;;;;;2.83;2.63;;;13.40;93.20;;;;;;5088099;28;20201;-71
2022/02/24 10:56:42;;;;;;;2.95;2.38;;;13.40;93.50;;;;;;5087323;28;20734;-70
2022/02/24 10:59:12;;;;;;;4.38;2.50;;;13.40;92.90;;;;;;5083959;28;20193;-69
2022/02/24 11:01:40;;;;;;;3.22;2.70;;;13.20;92.90;;;;;;5080877;28;20237;-69
2022/02/24 11:04:08;;;;;;;2.80;2.50;;;13.10;92.80;;;;;;5079699;28;20671;-71
2022/02/24 11:06:37;;;;;;;3.00;2.10;;;12.80;93.00;;;;;;5078487;28;20225;-69
2022/02/24 11:09:05;;;;;;;2.50;2.30;;;12.70;93.40;;;;;;5080395;28;20222;-69
2022/02/24 11:11:35;;;;;;;2.88;2.67;;;12.80;94.00;;;;;;5078419;28;20228;-69
2022/02/24 11:14:05;;;;;;;2.22;2.03;;;13.00;93.30;;;;;;5077202;28;20213;-71
2022/02/24 11:16:34;;;;;;;2.63;2.42;;;13.00;93.40;;;;;;5079751;28;20225;-69
2022/02/24 11:19:01;;;;;;;4.10;2.40;;;13.10;92.90;;;;;;5079076;28;20296;-69
2022/02/24 11:21:30;;;;;;;4.57;2.47;;;13.10;93.20;;;;;;5074627;28;20225;-69
2022/02/24 11:23:57;;;;;;;4.75;2.42;;;13.10;92.70;;;;;;5078336;28;20606;-69
2022/02/24 11:26:47;;;;;;;4.15;2.63;;;12.90;92.60;;;;;;5076072;28;20230;-69
2022/02/24 11:29:25;;;;;;;2.30;2.10;;;12.90;92.50;;;;;;5075052;28;20546;-69
2022/02/24 11:31:57;;;;;;;5.28;2.33;;;12.90;92.30;;;;;;5078017;28;20275;-69
2022/02/24 11:34:58;;;;;;;3.35;2.45;;;12.90;92.40;;;;;;5076855;28;20205;-69
2022/02/24 11:37:28;;;;;;;2.88;2.67;;;13.00;92.70;;;;;;5075255;28;20221;-69
2022/02/24 11:40:01;;;;;;;2.60;2.40;;;13.10;92.40;;;;;;5079887;28;20588;-71
2022/02/24 11:42:32;;;;;;;2.65;2.45;;;13.20;92.00;;;;;;5077557;28;20627;-69
2022/02/24 11:45:00;;;;;;;2.55;2.20;;;13.10;92.10;;;;;;5078911;28;20714;-69
2022/02/24 11:47:28;;;;;;;2.55;2.35;;;13.10;92.00;;;;;;5075824;28;20221;-69
2022/02/24 11:50:10;;;;;;;2.40;2.20;;;13.10;91.50;;;;;;5079724;28;20244;-70
2022/02/24 11:52:52;;;;;;;3.13;1.95;;;13.10;91.20;;;;;;5074507;28;20227;-70
2022/02/24 11:55:49;;;;;;;3.25;2.10;;;13.10;91.20;;;;;;5079849;28;20221;-69
2022/02/24 11:58:46;;;;;;;2.65;2.20;;;13.00;91.40;;;;;;5100469;28;20224;-69
2022/02/24 12:01:38;;;;;;;2.58;2.35;;;12.80;91.00;;;;;;5096363;28;20197;-69
2022/02/24 12:04:30;;;;;;;3.22;2.40;;;12.70;91.10;;;;;;5095072;28;20695;-70
2022/02/24 12:07:10;;;;;;;2.17;2.00;;;13.00;91.50;;;;;;5094483;28;20235;-70
2022/02/24 12:09:38;;;;;;;4.18;2.40;;;13.00;91.20;;;;;;5098532;28;20216;-70
2022/02/24 12:12:11;;;;;;;3.85;2.35;;;12.80;90.60;;;;;;5095949;28;20953;-70
2022/02/24 12:14:46;;;;;;;3.00;2.20;;;12.80;90.90;;;;;;5098297;28;20235;-69
2022/02/24 12:17:14;;;;;;;2.85;2.65;;;12.80;91.20;;;;;;5098431;28;20219;-69
2022/02/24 12:19:44;;;;;;;2.60;2.40;;;12.70;91.00;;;;;;5094937;28;20451;-71
2022/02/24 12:22:22;;;;;;;2.63;2.42;;;12.60;91.50;;;;;;5096022;28;20228;-70
2022/02/24 12:24:51;;;;;;;3.08;2.42;;;12.70;91.70;;;;;;5098902;28;20204;-70
2022/02/24 12:27:30;;;;;;;2.42;2.22;;;12.90;91.50;;;;;;5099266;28;20212;-70
2022/02/24 12:30:02;;;;;;;2.55;2.10;;;13.30;91.60;;;;;;5097546;28;20220;-69
2022/02/24 12:32:42;;;;;;;3.85;2.10;;;13.80;91.10;;;;;;5100978;28;20606;-69
2022/02/24 12:35:12;;;;;;;2.75;2.55;;;14.10;90.90;;;;;;5101423;28;20220;-69
2022/02/24 12:37:40;;;;;;;2.58;2.38;;;14.20;89.80;;;;;;5100600;28;20224;-69
2022/02/24 12:40:09;;;;;;;2.40;2.20;;;14.10;90.70;;;;;;5095253;28;21743;-70
2022/02/24 12:42:37;;;;;;;2.50;2.25;;;13.90;88.80;;;;;;5102083;28;20267;-69
2022/02/24 12:45:07;;;;;;;2.58;2.38;;;13.80;90.20;;;;;;5099609;28;20699;-70
2022/02/24 12:47:34;;;;;;;2.58;2.38;;;13.70;90.30;;;;;;5099588;28;20217;-70
2022/02/24 12:50:01;;;;;;;2.47;2.28;;;13.50;90.30;;;;;;5096283;28;20216;-69
2022/02/24 12:52:30;;;;;;;2.88;2.35;;;13.40;90.50;;;;;;5099889;28;20216;-69
2022/02/24 12:54:57;;;;;;;2.30;2.20;;;13.30;90.10;;;;;;5098985;27;20230;-70
2022/02/24 12:57:27;;;;;;;2.42;2.20;;;13.10;90.40;;;;;;5100020;27;20242;-69
2022/02/24 12:59:54;;;;;;;2.55;2.35;;;13.00;91.00;;;;;;5096535;28;20185;-69
2022/02/24 13:02:24;;;;;;;2.60;2.40;;;12.70;90.90;;;;;;5096510;28;20367;-71